Georgetown, Kentucky
Current Conditions -  °F | °C
As of 10:54 AM on Monday 22 Dec 2014 (Local Time) from KLEX Reporting Station
Clear Clear  
Wind Chill: 50°   Ceiling: Unl
Heat Index: 50°   Visibility: 10mi
Dew Point: 36°   Wind: 9mph
Humidity: 59%   Direction: 140°SE
Pressure: 29.98"   Gusts: NA
Location:  38.21°N, 84.56°W
Report Text: KLEX 221554Z 14008KT 10SM CLR 10/02 A2998 RMK AO2 SLP155 T01000022
Loading
Personal Weather Stations






























Interactive Weather Map New forecast layout! Learn more

10-Day Weather Forecast

Advertisements
Track Severe Weather on mobile